Lovejoy, Georgia
Current Conditions -  °F | °C
As of 3:53 AM on Saturday 29 Nov 2014 (Local Time) from KFFC Reporting Station
Clear Clear  
Wind Chill: 27°   Ceiling: Unl
Heat Index: 27°   Visibility: 7mi
Dew Point: 24°   Wind: 0mph
Humidity: 89%   Direction: NA
Pressure: 30.27"   Gusts: NA
Location:  33.44°N, 84.31°W
Report Text: KFFC 290853Z AUTO 00000KT 7SM CLR M03/M04 A3027 RMK AO2 SLP256 T10281044 58002
Loading
Personal Weather Stations






























Interactive Weather Map New forecast layout! Learn more

10-Day Weather Forecast

Advertisements
Track Severe Weather on mobile